Time;durP1;ratioP1;P1;durP2;ratioP2;P2;SDS_P1;SDS_P2;PMS_P1;PMS_P2;Temp;Humidity;BMP_temperature;BMP_pressure;BME280_temperature;BME280_humidity;BME280_pressure;Samples;Min_cycle;Max_cycle;Signal;HPM_P1;HPM_P2
2021/04/11 00:00:28;;;;;;;31.13;21.98;;;7.70;92.40;;;;;;4897036;29;20111;-75
2021/04/11 00:02:54;;;;;;;31.75;22.42;;;7.60;92.40;;;;;;4896319;29;20394;-75
2021/04/11 00:05:22;;;;;;;28.17;21.30;;;7.50;92.50;;;;;;4897518;29;20040;-76
2021/04/11 00:07:49;;;;;;;21.35;17.25;;;7.50;92.60;;;;;;4897693;29;20024;-76
2021/04/11 00:10:23;;;;;;;20.85;16.90;;;7.50;92.90;;;;;;4897326;29;20080;-76
2021/04/11 00:12:48;;;;;;;21.30;17.27;;;7.40;92.70;;;;;;4897751;29;20036;-75
2021/04/11 00:15:16;;;;;;;19.75;16.63;;;7.40;92.70;;;;;;4896312;29;20044;-75
2021/04/11 00:17:42;;;;;;;17.52;14.55;;;7.30;92.70;;;;;;4896964;29;20541;-80
2021/04/11 00:20:09;;;;;;;20.45;16.13;;;7.30;92.80;;;;;;4896918;29;20462;-80
2021/04/11 00:22:35;;;;;;;20.60;15.73;;;7.40;92.80;;;;;;4897895;29;20084;-80
2021/04/11 00:25:01;;;;;;;14.07;12.57;;;7.40;92.70;;;;;;4898182;29;20056;-80
2021/04/11 00:27:26;;;;;;;19.70;16.23;;;7.40;92.70;;;;;;4898199;29;20028;-79
2021/04/11 00:29:52;;;;;;;21.98;16.90;;;7.50;92.60;;;;;;4897004;29;20041;-79
2021/04/11 00:32:18;;;;;;;16.50;13.73;;;7.40;92.50;;;;;;4878186;29;20033;-79
2021/04/11 00:34:43;;;;;;;14.75;11.95;;;7.40;92.40;;;;;;4895055;29;20063;-79
2021/04/11 00:37:09;;;;;;;19.55;16.27;;;7.30;92.50;;;;;;4898047;29;20028;-79
2021/04/11 00:39:37;;;;;;;18.73;13.55;;;7.20;92.40;;;;;;4896564;29;20052;-79
2021/04/11 00:42:11;;;;;;;20.33;16.17;;;7.20;92.50;;;;;;4898031;29;20435;-79
2021/04/11 00:44:37;;;;;;;20.67;16.15;;;7.10;92.40;;;;;;4897675;29;20104;-79
2021/04/11 00:47:05;;;;;;;18.70;14.60;;;7.10;92.50;;;;;;4896733;29;20115;-80
2021/04/11 00:49:42;;;;;;;18.52;14.40;;;7.00;92.60;;;;;;4897819;29;20097;-80
2021/04/11 00:52:10;;;;;;;19.38;14.95;;;7.00;92.70;;;;;;4897788;29;20025;-76
2021/04/11 00:54:37;;;;;;;14.90;13.30;;;7.00;92.70;;;;;;4897838;29;20032;-77
2021/04/11 00:57:04;;;;;;;17.08;14.52;;;7.00;92.70;;;;;;4900143;29;20068;-75
2021/04/11 00:59:31;;;;;;;16.55;13.95;;;7.00;92.50;;;;;;4899396;29;20435;-76
2021/04/11 01:01:56;;;;;;;15.98;13.32;;;6.90;92.40;;;;;;4899244;29;20131;-76
2021/04/11 01:04:22;;;;;;;16.67;13.35;;;6.80;92.40;;;;;;4881331;29;20124;-76
2021/04/11 01:06:52;;;;;;;16.70;12.13;;;6.70;92.40;;;;;;4902524;29;20039;-75
2021/04/11 01:09:30;;;;;;;14.77;12.93;;;6.70;92.60;;;;;;4900567;29;20077;-75
2021/04/11 01:11:58;;;;;;;14.38;11.70;;;6.70;92.60;;;;;;4900266;29;20466;-75
2021/04/11 01:14:27;;;;;;;14.63;12.27;;;6.70;92.60;;;;;;4899566;29;20028;-76
2021/04/11 01:16:52;;;;;;;19.80;14.88;;;6.70;92.50;;;;;;4899883;29;20085;-76
2021/04/11 01:19:24;;;;;;;12.60;11.30;;;6.70;92.40;;;;;;4899277;29;20060;-76
2021/04/11 01:21:55;;;;;;;11.20;9.80;;;6.60;92.50;;;;;;4900279;29;20043;-76
2021/04/11 01:24:32;;;;;;;11.68;9.70;;;6.60;92.40;;;;;;4900250;29;20111;-76
2021/04/11 01:26:58;;;;;;;15.57;11.48;;;6.60;92.40;;;;;;4900564;29;20021;-76
2021/04/11 01:29:24;;;;;;;11.45;9.77;;;6.50;92.40;;;;;;4899574;29;20032;-76
2021/04/11 01:31:50;;;;;;;13.93;11.32;;;6.50;92.30;;;;;;4899052;29;20176;-76
2021/04/11 01:34:16;;;;;;;10.07;8.75;;;6.40;92.20;;;;;;4899788;29;20512;-76
2021/04/11 01:36:44;;;;;;;12.27;10.13;;;6.40;92.20;;;;;;4898385;29;20036;-76
2021/04/11 01:39:17;;;;;;;15.23;11.80;;;6.30;92.10;;;;;;4898651;29;20406;-76
2021/04/11 01:41:45;;;;;;;10.88;9.38;;;6.30;92.00;;;;;;4899747;29;20084;-76
2021/04/11 01:44:14;;;;;;;12.70;9.45;;;6.20;92.00;;;;;;4899951;29;20028;-76
2021/04/11 01:46:40;;;;;;;9.70;8.70;;;6.20;92.10;;;;;;4898805;29;20072;-76
2021/04/11 01:49:06;;;;;;;10.68;8.32;;;6.20;92.40;;;;;;4900081;29;20112;-76
2021/04/11 01:51:35;;;;;;;14.32;9.32;;;6.20;92.10;;;;;;4899224;29;20104;-76
2021/04/11 01:54:08;;;;;;;;;;;6.30;92.00;;;;;;4901071;29;20386;-76
2021/04/11 01:56:34;;;;;;;9.63;7.03;;;6.20;91.90;;;;;;4896701;29;20389;-76
2021/04/11 01:59:00;;;;;;;12.00;7.13;;;6.20;91.90;;;;;;4899522;29;20049;-76
2021/04/11 02:01:28;;;;;;;9.55;7.85;;;6.20;91.90;;;;;;4882789;29;20040;-76
2021/04/11 02:03:55;;;;;;;7.40;5.97;;;6.20;91.80;;;;;;4898506;29;20025;-76
2021/04/11 02:06:22;;;;;;;9.15;7.30;;;6.00;91.60;;;;;;4898398;29;20108;-76
2021/04/11 02:08:54;;;;;;;7.63;6.85;;;6.00;91.70;;;;;;4898307;29;20516;-76
2021/04/11 02:11:21;;;;;;;7.97;7.10;;;5.90;91.70;;;;;;4899770;29;20037;-79
2021/04/11 02:13:47;;;;;;;8.35;7.35;;;5.90;91.80;;;;;;4900010;29;20127;-79
2021/04/11 02:16:16;;;;;;;9.32;7.22;;;5.90;91.90;;;;;;4899950;29;20052;-79
2021/04/11 02:18:42;;;;;;;9.07;7.43;;;5.90;91.90;;;;;;4900055;29;20040;-78
2021/04/11 02:21:16;;;;;;;12.15;7.43;;;5.80;91.80;;;;;;4898542;29;20033;-78
2021/04/11 02:23:42;;;;;;;9.10;6.88;;;5.90;91.80;;;;;;4901490;29;20124;-78
2021/04/11 02:26:10;;;;;;;6.63;6.00;;;5.80;91.70;;;;;;4918762;29;20028;-79
2021/04/11 02:28:37;;;;;;;7.10;6.40;;;5.80;91.80;;;;;;4914383;29;20024;-78
2021/04/11 02:31:17;;;;;;;6.68;5.97;;;5.70;91.70;;;;;;4882979;29;20036;-79
2021/04/11 02:33:47;;;;;;;8.00;6.50;;;5.60;91.70;;;;;;4899669;29;20029;-78
2021/04/11 02:36:12;;;;;;;6.90;4.78;;;5.60;91.80;;;;;;4899830;29;20029;-79
2021/04/11 02:38:38;;;;;;;6.60;5.90;;;5.60;91.90;;;;;;4899707;29;20047;-79
2021/04/11 02:41:04;;;;;;;8.65;7.40;;;5.50;91.90;;;;;;4898361;29;20371;-78
2021/04/11 02:43:29;;;;;;;8.82;7.93;;;5.40;91.60;;;;;;4904881;29;20483;-79
2021/04/11 02:45:58;;;;;;;11.43;8.40;;;5.30;91.80;;;;;;4899564;29;20032;-78
2021/04/11 02:48:24;;;;;;;14.90;9.02;;;5.20;91.80;;;;;;4899301;29;20394;-79
2021/04/11 02:50:49;;;;;;;10.20;8.88;;;5.10;91.90;;;;;;4897943;29;20032;-79
2021/04/11 02:53:22;;;;;;;11.25;9.05;;;5.00;92.10;;;;;;4896866;29;20517;-79
2021/04/11 02:55:48;;;;;;;9.50;7.93;;;5.00;92.20;;;;;;4878702;29;20491;-79
2021/04/11 02:58:18;;;;;;;9.27;8.05;;;5.00;92.30;;;;;;4897962;29;20057;-79
2021/04/11 03:00:50;;;;;;;11.98;9.38;;;5.00;92.30;;;;;;4915763;29;20103;-79
2021/04/11 03:03:17;;;;;;;8.75;7.30;;;4.90;92.60;;;;;;4896964;29;20502;-79
2021/04/11 03:05:43;;;;;;;9.88;7.68;;;5.00;92.40;;;;;;4897091;29;20029;-79
2021/04/11 03:08:13;;;;;;;9.57;7.35;;;5.00;92.30;;;;;;4896189;29;20040;-79
2021/04/11 03:11:07;;;;;;;11.25;7.72;;;5.00;92.30;;;;;;4898445;29;20025;-79
2021/04/11 03:13:34;;;;;;;10.63;7.50;;;5.00;92.30;;;;;;4890545;29;20111;-79
2021/04/11 03:16:00;;;;;;;10.57;7.65;;;5.00;92.20;;;;;;4898012;29;20054;-79
2021/04/11 03:18:27;;;;;;;8.35;7.10;;;5.00;92.20;;;;;;4896445;29;20502;-79
2021/04/11 03:20:54;;;;;;;12.18;8.20;;;5.10;92.20;;;;;;4897012;29;20040;-79
2021/04/11 03:23:21;;;;;;;9.18;6.75;;;5.10;92.10;;;;;;4888137;29;20032;-79
2021/04/11 03:25:53;;;;;;;13.45;8.38;;;5.20;92.10;;;;;;4898119;29;20041;-79
2021/04/11 03:28:35;;;;;;;15.23;10.48;;;5.10;92.00;;;;;;4898109;29;20080;-79
2021/04/11 03:31:16;;;;;;;14.30;9.77;;;5.10;92.30;;;;;;4904577;29;20481;-79
2021/04/11 03:33:45;;;;;;;13.40;9.38;;;5.00;92.10;;;;;;4904326;29;20033;-79
2021/04/11 03:36:14;;;;;;;17.08;12.38;;;4.90;92.10;;;;;;4893201;29;20029;-79
2021/04/11 03:38:40;;;;;;;18.17;9.57;;;4.80;92.10;;;;;;4896359;29;20040;-79
2021/04/11 03:41:07;;;;;;;18.00;12.10;;;4.80;92.20;;;;;;4911812;29;20032;-79
2021/04/11 03:43:43;;;;;;;20.80;11.55;;;4.80;92.20;;;;;;4896928;29;20027;-79
2021/04/11 03:46:17;;;;;;;15.68;10.60;;;4.80;92.30;;;;;;4898151;29;20508;-79
2021/04/11 03:48:49;;;;;;;16.48;11.82;;;4.70;92.20;;;;;;4897150;29;20036;-79
2021/04/11 03:51:22;;;;;;;20.08;12.18;;;4.70;92.30;;;;;;4897672;29;20032;-79
2021/04/11 03:53:50;;;;;;;13.25;9.60;;;4.70;92.40;;;;;;4897671;29;20025;-79
2021/04/11 03:56:19;;;;;;;12.98;9.60;;;4.70;92.40;;;;;;4898298;29;20056;-79
2021/04/11 03:58:53;;;;;;;15.50;11.27;;;4.80;92.40;;;;;;4897079;29;20840;-79
2021/04/11 04:01:22;;;;;;;14.07;10.07;;;4.80;92.30;;;;;;4896765;29;20033;-79
2021/04/11 04:03:52;;;;;;;16.88;11.05;;;4.70;92.20;;;;;;4897871;29;20036;-79
2021/04/11 04:06:27;;;;;;;15.73;10.02;;;4.70;92.30;;;;;;4897675;29;20024;-79
2021/04/11 04:08:53;;;;;;;13.63;9.30;;;4.70;92.30;;;;;;4896054;29;20443;-76
2021/04/11 04:12:01;;;;;;;16.67;11.50;;;4.60;92.20;;;;;;4897729;29;20033;-76
2021/04/11 04:14:54;;;;;;;20.38;11.80;;;4.60;92.30;;;;;;4872411;29;20040;-76
2021/04/11 04:18:11;;;;;;;18.05;11.05;;;4.60;92.60;;;;;;4896342;29;20433;-76
2021/04/11 04:20:42;;;;;;;15.50;11.13;;;4.50;92.40;;;;;;4872854;29;20487;-76
2021/04/11 04:23:16;;;;;;;17.77;11.05;;;4.50;92.60;;;;;;4896178;29;20064;-76
2021/04/11 04:25:57;;;;;;;18.00;11.35;;;4.50;92.60;;;;;;4896335;29;20036;-76
2021/04/11 04:28:54;;;;;;;15.70;10.70;;;4.60;92.60;;;;;;4897281;29;20028;-76
2021/04/11 04:31:36;;;;;;;18.80;12.07;;;4.60;92.70;;;;;;4901528;29;20025;-76
2021/04/11 04:35:03;;;;;;;15.57;10.45;;;4.60;92.50;;;;;;4902441;29;20052;-76
2021/04/11 04:37:29;;;;;;;19.65;11.73;;;4.60;92.40;;;;;;4875198;29;20077;-74
2021/04/11 04:40:04;;;;;;;14.65;10.73;;;4.60;92.40;;;;;;4900520;29;20075;-75
2021/04/11 04:42:42;;;;;;;13.70;10.23;;;4.60;92.80;;;;;;4900494;29;20040;-75
2021/04/11 04:45:11;;;;;;;17.60;12.00;;;4.60;92.50;;;;;;4900056;29;20112;-74
2021/04/11 04:47:42;;;;;;;;;;;4.60;92.50;;;;;;4901058;29;20039;-74
2021/04/11 04:50:17;;;;;;;16.85;12.38;;;4.60;92.40;;;;;;4900392;29;19911;-75
2021/04/11 04:52:49;;;;;;;15.32;12.00;;;4.60;92.50;;;;;;4898451;29;20494;-74
2021/04/11 04:55:24;;;;;;;17.73;11.35;;;4.60;92.50;;;;;;4900592;29;20470;-75
2021/04/11 04:58:05;;;;;;;16.15;10.25;;;4.60;92.50;;;;;;4912878;29;20052;-75
2021/04/11 05:00:35;;;;;;;18.42;11.75;;;4.70;92.90;;;;;;4905419;29;20041;-74
2021/04/11 05:03:37;;;;;;;16.00;10.52;;;4.70;92.60;;;;;;4900289;29;20045;-74
2021/04/11 05:06:15;;;;;;;22.60;14.20;;;4.70;92.60;;;;;;4898785;29;20044;-74
2021/04/11 05:09:01;;;;;;;17.80;12.77;;;4.70;92.50;;;;;;4900324;29;20034;-75
2021/04/11 05:11:45;;;;;;;18.70;12.23;;;4.70;92.50;;;;;;4900350;29;20032;-74
2021/04/11 05:14:15;;;;;;;14.25;9.63;;;4.70;92.60;;;;;;4906965;29;20040;-74
2021/04/11 05:16:46;;;;;;;18.85;11.48;;;4.70;92.60;;;;;;4898972;29;20044;-74
2021/04/11 05:19:15;;;;;;;14.30;8.98;;;4.70;92.60;;;;;;4900327;29;20028;-75
2021/04/11 05:21:46;;;;;;;15.00;9.77;;;4.70;92.50;;;;;;4903852;29;20032;-74
2021/04/11 05:24:18;;;;;;;12.25;8.68;;;4.70;92.60;;;;;;4910164;29;20036;-75
2021/04/11 05:26:52;;;;;;;13.85;7.97;;;4.70;92.60;;;;;;4907733;29;20028;-79
2021/04/11 05:29:26;;;;;;;11.60;6.80;;;4.80;92.80;;;;;;4900715;29;20024;-79
2021/04/11 05:31:55;;;;;;;9.75;7.00;;;4.70;92.50;;;;;;4899110;29;20435;-79
2021/04/11 05:34:23;;;;;;;9.65;7.43;;;4.70;92.40;;;;;;4899183;29;20028;-79
2021/04/11 05:37:04;;;;;;;8.75;6.88;;;4.80;92.40;;;;;;4900732;29;20109;-79
2021/04/11 05:39:44;;;;;;;8.40;6.50;;;4.80;92.50;;;;;;4900420;29;20033;-79
2021/04/11 05:42:27;;;;;;;10.38;6.80;;;4.80;92.50;;;;;;4882561;29;20120;-79
2021/04/11 05:44:56;;;;;;;7.25;5.50;;;4.70;92.30;;;;;;4899328;29;20052;-79
2021/04/11 05:47:41;;;;;;;7.40;6.00;;;4.70;92.30;;;;;;4908113;29;20056;-79
2021/04/11 05:50:28;;;;;;;7.10;5.25;;;4.70;92.40;;;;;;4900231;29;20037;-79
2021/04/11 05:53:06;;;;;;;6.38;5.38;;;4.80;92.40;;;;;;4899978;29;20035;-79
2021/04/11 05:55:36;;;;;;;6.75;5.05;;;4.80;92.30;;;;;;4900768;29;20032;-79
2021/04/11 05:58:12;;;;;;;5.28;4.45;;;4.80;92.30;;;;;;4899581;29;20041;-79
2021/04/11 06:00:44;;;;;;;5.40;4.88;;;4.90;92.30;;;;;;4900005;29;20032;-79
2021/04/11 06:03:16;;;;;;;5.03;4.00;;;4.90;92.20;;;;;;4905476;29;20168;-79
2021/04/11 06:05:52;;;;;;;5.95;4.47;;;4.90;92.20;;;;;;4914948;29;20028;-79
2021/04/11 06:08:37;;;;;;;4.60;4.20;;;4.90;92.20;;;;;;4904607;29;20017;-79
2021/04/11 06:11:21;;;;;;;5.13;4.60;;;4.90;92.10;;;;;;4900957;29;20029;-79
2021/04/11 06:13:51;;;;;;;5.35;4.50;;;4.90;92.10;;;;;;4900258;29;20109;-79
2021/04/11 06:16:20;;;;;;;5.97;4.78;;;4.90;92.10;;;;;;4882544;29;20029;-79
2021/04/11 06:18:50;;;;;;;;;;;4.80;92.00;;;;;;4880609;29;20033;-79
2021/04/11 06:21:30;;;;;;;;;;;4.80;92.10;;;;;;4891269;29;19911;-79
2021/04/11 06:24:15;;;;;;;6.07;4.55;;;4.70;92.10;;;;;;4907405;29;19915;-79
2021/04/11 06:27:21;;;;;;;4.25;3.83;;;4.70;92.30;;;;;;4899662;29;20386;-79
2021/04/11 06:29:54;;;;;;;4.25;3.22;;;4.80;92.40;;;;;;4899970;29;20468;-79
2021/04/11 06:32:21;;;;;;;3.83;3.53;;;4.80;92.30;;;;;;4880995;29;20063;-79
2021/04/11 06:34:52;;;;;;;3.90;3.45;;;4.80;92.20;;;;;;4897572;29;20036;-79
2021/04/11 06:37:21;;;;;;;4.57;3.83;;;4.90;92.20;;;;;;4905636;29;20031;-79
2021/04/11 06:39:49;;;;;;;4.97;4.40;;;4.90;92.10;;;;;;4898550;29;20038;-79
2021/04/11 06:42:53;;;;;;;6.82;5.60;;;4.90;92.10;;;;;;4904661;29;20401;-79
2021/04/11 06:45:32;;;;;;;4.50;4.03;;;4.90;92.20;;;;;;4917246;29;20478;-79
2021/04/11 06:48:10;;;;;;;5.32;4.00;;;4.90;92.20;;;;;;4899841;29;20431;-79
2021/04/11 06:50:50;;;;;;;4.72;4.28;;;4.90;92.30;;;;;;4899192;29;20043;-79
2021/04/11 06:53:37;;;;;;;5.00;4.53;;;4.90;92.30;;;;;;4898405;29;20036;-80
2021/04/11 06:56:18;;;;;;;4.45;3.65;;;5.00;92.40;;;;;;4898856;29;20036;-79
2021/04/11 06:58:43;;;;;;;6.00;4.22;;;5.00;92.30;;;;;;4897612;29;20382;-79
2021/04/11 07:01:28;;;;;;;5.10;4.22;;;5.10;92.20;;;;;;4897527;29;20037;-79
2021/04/11 07:04:18;;;;;;;3.70;3.40;;;5.10;92.30;;;;;;4899076;29;20083;-79
2021/04/11 07:07:00;;;;;;;3.08;2.78;;;5.10;92.20;;;;;;4891076;29;20099;-75
2021/04/11 07:09:36;;;;;;;4.75;3.53;;;5.10;92.20;;;;;;4897425;29;20020;-80
2021/04/11 07:12:17;;;;;;;4.90;3.60;;;5.10;92.20;;;;;;4898899;29;20059;-79
2021/04/11 07:15:08;;;;;;;5.70;3.78;;;5.20;92.20;;;;;;4898967;29;20032;-80
2021/04/11 07:17:42;;;;;;;5.00;3.38;;;5.20;92.20;;;;;;4897741;29;20033;-80
2021/04/11 07:20:35;;;;;;;6.80;3.78;;;5.10;92.20;;;;;;4898335;29;20436;-80
2021/04/11 07:23:31;;;;;;;5.72;3.67;;;5.10;92.40;;;;;;4898735;29;20389;-80
2021/04/11 07:26:34;;;;;;;4.38;3.28;;;5.10;92.40;;;;;;4879040;29;20135;-80
2021/04/11 07:29:30;;;;;;;4.47;3.10;;;5.20;92.40;;;;;;4880131;29;20025;-80
2021/04/11 07:32:01;;;;;;;6.93;4.13;;;5.10;92.30;;;;;;4894740;29;20033;-76
2021/04/11 07:34:49;;;;;;;4.38;3.42;;;5.20;92.30;;;;;;4904392;29;20028;-76
2021/04/11 07:37:27;;;;;;;6.43;3.90;;;5.20;92.30;;;;;;4898502;29;20025;-80
2021/04/11 07:40:06;;;;;;;4.57;3.25;;;5.20;92.30;;;;;;4917672;29;20430;-80
2021/04/11 07:42:50;;;;;;;5.03;4.50;;;5.20;92.30;;;;;;4898558;29;20024;-80
2021/04/11 07:46:05;;;;;;;5.03;4.07;;;5.20;92.30;;;;;;4897072;29;20025;-80
2021/04/11 07:48:43;;;;;;;4.50;3.97;;;5.20;92.30;;;;;;4850625;29;20498;-80
2021/04/11 07:51:30;;;;;;;6.00;3.70;;;5.20;92.30;;;;;;4879642;29;20032;-80
2021/04/11 07:54:20;;;;;;;4.88;3.50;;;5.20;92.30;;;;;;4884414;29;20394;-80
2021/04/11 07:57:05;;;;;;;3.55;3.17;;;5.30;92.30;;;;;;4898044;29;20418;-79
2021/04/11 08:00:05;;;;;;;4.15;3.17;;;5.30;92.30;;;;;;4910568;29;20038;-79
2021/04/11 08:03:01;;;;;;;3.60;3.30;;;5.40;92.30;;;;;;4897024;29;20033;-82
2021/04/11 08:05:53;;;;;;;4.65;3.47;;;5.30;92.20;;;;;;4879605;29;20033;-80
2021/04/11 08:08:40;;;;;;;3.65;3.20;;;5.40;92.20;;;;;;4885850;29;20021;-79
2021/04/11 08:11:34;;;;;;;6.25;3.05;;;5.40;92.00;;;;;;4879575;29;20033;-79
2021/04/11 08:14:24;;;;;;;3.08;2.83;;;5.40;92.00;;;;;;4893504;29;20123;-79
2021/04/11 08:17:04;;;;;;;3.47;2.65;;;5.30;92.10;;;;;;4898118;29;20415;-79
2021/04/11 08:20:01;;;;;;;6.05;2.88;;;5.40;92.10;;;;;;4898009;29;20381;-80
2021/04/11 08:22:50;;;;;;;3.35;2.28;;;5.40;92.00;;;;;;4879155;29;20035;-80
2021/04/11 08:25:19;;;;;;;3.78;2.90;;;5.30;91.90;;;;;;4895074;29;20054;-77
2021/04/11 08:27:57;;;;;;;3.50;3.20;;;5.30;91.90;;;;;;4896497;29;20036;-77
2021/04/11 08:30:49;;;;;;;2.90;2.60;;;5.30;91.80;;;;;;4896886;29;20458;-77
2021/04/11 08:33:36;;;;;;;5.43;2.80;;;5.30;92.20;;;;;;4896536;29;20036;-76
2021/04/11 08:36:20;;;;;;;2.78;2.30;;;5.30;91.90;;;;;;4879579;29;20021;-77
2021/04/11 08:38:55;;;;;;;2.40;2.08;;;5.30;91.80;;;;;;4894873;29;20057;-76
2021/04/11 08:41:48;;;;;;;3.72;2.25;;;5.40;91.80;;;;;;4906736;29;20082;-76
2021/04/11 08:44:31;;;;;;;2.72;1.92;;;5.30;91.50;;;;;;4896519;29;20052;-76
2021/04/11 08:47:22;;;;;;;4.25;1.60;;;5.40;91.60;;;;;;4897849;29;20024;-76
2021/04/11 08:50:06;;;;;;;4.75;2.30;;;5.50;91.60;;;;;;4898002;29;20130;-75
2021/04/11 08:52:56;;;;;;;2.20;1.60;;;5.60;91.40;;;;;;4897407;29;20036;-81
2021/04/11 08:55:42;;;;;;;1.92;1.23;;;5.60;91.20;;;;;;4898462;29;20077;-81
2021/04/11 08:58:17;;;;;;;3.22;1.15;;;5.70;91.10;;;;;;4897740;29;20057;-79
2021/04/11 09:00:59;;;;;;;1.05;0.90;;;5.70;90.90;;;;;;4897855;29;20033;-79
2021/04/11 09:03:28;;;;;;;2.50;1.50;;;5.70;90.70;;;;;;4915424;29;20040;-79
2021/04/11 09:06:24;;;;;;;2.70;1.10;;;5.70;90.70;;;;;;4916605;29;20470;-78
2021/04/11 09:09:01;;;;;;;4.13;1.20;;;5.80;90.80;;;;;;4908676;29;20036;-78
2021/04/11 09:11:27;;;;;;;1.55;1.13;;;5.90;90.80;;;;;;4909610;29;20489;-76
2021/04/11 09:14:13;;;;;;;1.90;1.00;;;5.90;90.70;;;;;;4914971;29;20044;-76
2021/04/11 09:16:59;;;;;;;1.40;1.30;;;5.90;90.70;;;;;;4881175;29;20041;-76
2021/04/11 09:19:44;;;;;;;2.75;1.67;;;5.90;90.70;;;;;;4882333;29;20391;-77
2021/04/11 09:22:29;;;;;;;3.55;1.60;;;5.90;90.50;;;;;;4902590;29;20032;-80
2021/04/11 09:25:10;;;;;;;5.38;1.63;;;5.80;90.20;;;;;;4918731;29;20051;-79
2021/04/11 09:27:50;;;;;;;2.45;1.65;;;5.80;90.20;;;;;;4881167;29;20033;-79
2021/04/11 09:30:40;;;;;;;3.35;1.80;;;5.70;90.30;;;;;;4887855;29;20529;-83
2021/04/11 09:33:29;;;;;;;2.70;1.75;;;5.70;90.30;;;;;;4897602;29;20034;-79
2021/04/11 09:35:57;;;;;;;1.67;1.30;;;5.70;90.20;;;;;;4918028;29;20039;-80
2021/04/11 09:38:26;;;;;;;1.80;1.50;;;5.60;90.30;;;;;;4897053;29;20023;-81
2021/04/11 09:41:29;;;;;;;3.72;1.80;;;5.70;90.40;;;;;;4886249;29;20024;-81
2021/04/11 09:44:25;;;;;;;3.92;2.10;;;5.70;90.30;;;;;;4905625;29;20096;-80
2021/04/11 09:47:23;;;;;;;4.10;1.92;;;5.70;90.30;;;;;;4918179;29;20474;-80
2021/04/11 09:50:13;;;;;;;3.65;1.95;;;5.80;90.40;;;;;;4918074;29;20025;-81
2021/04/11 09:53:04;;;;;;;2.80;1.75;;;5.80;90.40;;;;;;4919317;29;20393;-81
2021/04/11 09:55:41;;;;;;;4.88;1.77;;;6.00;90.40;;;;;;4904533;29;20715;-81
2021/04/11 09:58:33;;;;;;;3.03;1.70;;;6.10;90.20;;;;;;4901890;29;20044;-81
2021/04/11 10:01:11;;;;;;;2.53;1.60;;;6.10;90.10;;;;;;4894383;29;20083;-81
2021/04/11 10:04:05;;;;;;;2.53;1.80;;;6.10;90.00;;;;;;4897511;29;20028;-82
2021/04/11 10:06:42;;;;;;;3.45;1.90;;;6.10;90.10;;;;;;4899968;29;20021;-82
2021/04/11 10:09:41;;;;;;;4.05;1.70;;;6.10;90.10;;;;;;4900149;29;20028;-81
2021/04/11 10:12:19;;;;;;;3.25;1.98;;;6.10;89.80;;;;;;4887797;29;20390;-82
2021/04/11 10:15:16;;;;;;;5.32;1.95;;;6.10;89.20;;;;;;4899648;29;20039;-82
2021/04/11 10:17:44;;;;;;;5.55;2.05;;;6.10;89.20;;;;;;4897397;29;20032;-82
2021/04/11 10:20:39;;;;;;;2.70;1.70;;;6.10;89.30;;;;;;4898723;29;20427;-82
2021/04/11 10:23:15;;;;;;;2.85;1.42;;;6.10;88.90;;;;;;4897956;29;20104;-78
2021/04/11 10:25:58;;;;;;;2.78;1.63;;;6.20;89.30;;;;;;4898131;29;20033;-74
2021/04/11 10:29:02;;;;;;;2.90;1.35;;;6.20;88.60;;;;;;4909828;29;20024;-78
2021/04/11 10:31:54;;;;;;;3.30;1.33;;;6.40;88.50;;;;;;4867506;29;20033;-79
2021/04/11 10:34:49;;;;;;;2.67;1.30;;;6.50;87.90;;;;;;4898244;29;20037;-80
2021/04/11 10:37:33;;;;;;;2.05;1.35;;;6.60;87.70;;;;;;4892346;29;20063;-79
2021/04/11 10:40:08;;;;;;;3.42;1.42;;;6.60;87.00;;;;;;4899728;29;20064;-79
2021/04/11 10:42:42;;;;;;;3.08;1.45;;;6.70;86.70;;;;;;4899595;29;20029;-79
2021/04/11 10:45:14;;;;;;;4.03;1.30;;;6.70;86.80;;;;;;4898192;29;20385;-75
2021/04/11 10:47:52;;;;;;;1.92;1.35;;;6.70;86.40;;;;;;4909139;29;20047;-75
2021/04/11 10:50:53;;;;;;;4.90;1.35;;;6.80;86.50;;;;;;4897977;29;20633;-75
2021/04/11 10:53:24;;;;;;;3.60;1.27;;;6.90;86.80;;;;;;4876606;29;20064;-74
2021/04/11 10:56:05;;;;;;;5.57;1.48;;;7.00;86.40;;;;;;4897635;29;20057;-75
2021/04/11 10:58:52;;;;;;;3.45;1.60;;;7.10;84.40;;;;;;4904879;29;20538;-83
2021/04/11 11:01:59;;;;;;;2.42;1.10;;;7.10;84.40;;;;;;4899137;29;20037;-80
2021/04/11 11:04:59;;;;;;;1.95;1.20;;;7.00;84.20;;;;;;4880604;29;20135;-76
2021/04/11 11:07:51;;;;;;;2.85;1.15;;;6.90;84.30;;;;;;4880529;29;20792;-81
2021/04/11 11:10:17;;;;;;;2.22;1.02;;;6.90;84.70;;;;;;4893166;29;20043;-80
2021/04/11 11:13:14;;;;;;;2.17;1.05;;;6.80;84.20;;;;;;4899021;29;20068;-82
2021/04/11 11:15:42;;;;;;;2.60;1.35;;;6.80;84.60;;;;;;4898753;29;20080;-80
2021/04/11 11:18:33;;;;;;;1.70;1.20;;;6.80;84.90;;;;;;4898767;29;20063;-80
2021/04/11 11:21:20;;;;;;;2.35;1.20;;;6.80;83.00;;;;;;4898153;29;20028;-80
2021/04/11 11:23:57;;;;;;;3.13;1.65;;;6.70;83.90;;;;;;4898164;29;20036;-80
2021/04/11 11:26:41;;;;;;;2.95;1.38;;;6.80;84.60;;;;;;4897496;29;20080;-80
2021/04/11 11:29:37;;;;;;;5.57;1.63;;;6.90;84.80;;;;;;4898562;29;20490;-80
2021/04/11 11:32:30;;;;;;;2.13;1.30;;;7.10;84.40;;;;;;4898805;29;20058;-80
2021/04/11 11:35:06;;;;;;;3.65;1.40;;;7.20;84.60;;;;;;4900363;29;20512;-76
2021/04/11 11:37:55;;;;;;;4.10;1.38;;;7.30;84.40;;;;;;4916392;29;20035;-75
2021/04/11 11:40:52;;;;;;;3.43;1.43;;;7.20;83.10;;;;;;4899221;29;20056;-76
2021/04/11 11:43:27;;;;;;;3.40;1.67;;;7.20;83.10;;;;;;4891189;29;20049;-76
2021/04/11 11:46:23;;;;;;;2.75;1.50;;;7.10;83.20;;;;;;4898922;29;20029;-76
2021/04/11 11:49:14;;;;;;;2.15;1.38;;;7.00;83.80;;;;;;4876987;29;20048;-80
2021/04/11 11:51:54;;;;;;;4.30;1.42;;;7.10;84.10;;;;;;4895552;29;20033;-76
2021/04/11 11:54:26;;;;;;;1.65;1.15;;;7.10;83.90;;;;;;4880960;29;20498;-77
2021/04/11 11:56:52;;;;;;;1.95;1.13;;;7.10;83.70;;;;;;4897260;29;20053;-76
2021/04/11 11:59:31;;;;;;;2.35;0.77;;;7.20;83.40;;;;;;4898754;29;20035;-81
2021/04/11 12:02:03;;;;;;;2.65;0.90;;;7.20;83.30;;;;;;4897411;29;20065;-80
2021/04/11 12:05:01;;;;;;;2.95;1.23;;;7.20;83.30;;;;;;4897862;29;20031;-79
2021/04/11 12:07:36;;;;;;;1.43;1.17;;;7.20;82.50;;;;;;4898321;29;20381;-80
2021/04/11 12:10:11;;;;;;;2.28;1.10;;;7.10;82.60;;;;;;4898304;29;20265;-80
2021/04/11 12:12:51;;;;;;;4.68;1.08;;;7.10;82.60;;;;;;4896857;29;20036;-80
2021/04/11 12:15:44;;;;;;;0.80;0.80;;;7.20;83.00;;;;;;4896766;29;20040;-80
2021/04/11 12:18:22;;;;;;;3.45;1.00;;;7.30;83.10;;;;;;4879504;29;20131;-80
2021/04/11 12:21:12;;;;;;;1.33;0.95;;;7.30;82.60;;;;;;4897043;29;20029;-80
2021/04/11 12:23:46;;;;;;;2.05;0.80;;;7.50;82.70;;;;;;4905083;29;20033;-76
2021/04/11 12:26:20;;;;;;;2.08;0.90;;;7.60;82.60;;;;;;4915591;29;20050;-75
2021/04/11 12:28:47;;;;;;;5.18;1.00;;;7.70;82.20;;;;;;4915540;29;20084;-76
2021/04/11 12:31:30;;;;;;;3.67;1.00;;;7.70;81.90;;;;;;4915391;29;20362;-76
2021/04/11 12:34:10;;;;;;;1.52;0.82;;;7.60;82.20;;;;;;4916674;29;20063;-76
2021/04/11 12:36:45;;;;;;;1.67;1.00;;;7.60;82.70;;;;;;4916558;29;20025;-75
2021/04/11 12:39:25;;;;;;;5.22;0.82;;;7.60;82.80;;;;;;4916686;29;20052;-75
2021/04/11 12:41:53;;;;;;;;;;;7.60;83.00;;;;;;4915184;29;20088;-76
2021/04/11 12:44:40;;;;;;;1.77;1.10;;;7.70;82.70;;;;;;4915343;29;19907;-75
2021/04/11 12:47:17;;;;;;;4.40;1.40;;;7.60;81.80;;;;;;4916560;29;20020;-75
2021/04/11 12:50:02;;;;;;;1.88;1.15;;;7.50;82.00;;;;;;4916034;29;20390;-75
2021/04/11 12:52:59;;;;;;;3.72;1.13;;;7.40;81.30;;;;;;4905040;29;20486;-75
2021/04/11 12:55:27;;;;;;;1.67;0.95;;;7.40;82.10;;;;;;4901186;29;20032;-75
2021/04/11 12:58:06;;;;;;;2.83;0.80;;;7.40;82.50;;;;;;4900008;29;20057;-75
2021/04/11 13:00:34;;;;;;;3.33;0.80;;;7.50;82.20;;;;;;4901123;29;20057;-76
2021/04/11 13:03:12;;;;;;;2.63;1.05;;;7.50;82.60;;;;;;4900976;29;20032;-75
2021/04/11 13:05:40;;;;;;;1.05;0.55;;;7.60;82.20;;;;;;4901024;29;20028;-75
2021/04/11 13:08:16;;;;;;;1.88;0.70;;;7.70;81.80;;;;;;4899595;29;20029;-75
2021/04/11 13:10:57;;;;;;;1.38;0.70;;;7.70;81.10;;;;;;4904121;29;20091;-75
2021/04/11 13:13:39;;;;;;;2.85;0.82;;;7.70;80.60;;;;;;4918487;29;20477;-75
2021/04/11 13:16:40;;;;;;;3.00;0.68;;;7.60;80.60;;;;;;4919745;29;20107;-76
2021/04/11 13:19:24;;;;;;;1.80;0.80;;;7.60;81.00;;;;;;4910237;29;20413;-75
2021/04/11 13:22:19;;;;;;;2.25;0.88;;;7.60;80.80;;;;;;4918468;29;20084;-75
2021/04/11 13:25:06;;;;;;;1.70;1.05;;;7.60;80.50;;;;;;4904439;29;20568;-75
2021/04/11 13:27:47;;;;;;;2.90;1.30;;;7.70;80.90;;;;;;4914171;29;20479;-75
2021/04/11 13:30:30;;;;;;;6.63;1.20;;;7.70;80.00;;;;;;4900751;29;20077;-76
2021/04/11 13:33:19;;;;;;;2.15;1.02;;;7.80;78.90;;;;;;4900729;29;20115;-76
2021/04/11 13:35:59;;;;;;;2.40;0.80;;;7.80;79.30;;;;;;4900635;29;20025;-75
2021/04/11 13:38:27;;;;;;;4.07;1.52;;;7.90;79.70;;;;;;4899294;29;20032;-75
2021/04/11 13:41:37;;;;;;;3.27;1.30;;;8.00;79.60;;;;;;4899362;29;20025;-75
2021/04/11 13:44:15;;;;;;;3.75;1.05;;;8.20;78.70;;;;;;4897938;29;20041;-75
2021/04/11 13:46:52;;;;;;;3.30;1.23;;;8.30;77.70;;;;;;4918210;29;20031;-75
2021/04/11 13:49:22;;;;;;;4.10;1.25;;;8.30;77.30;;;;;;4918426;29;20031;-76